createdAt,value
2022-12-14T00:01:34.147Z,-5.70
2022-12-14T00:04:00.741Z,-5.70
2022-12-14T00:06:28.155Z,-5.70
2022-12-14T00:08:55.936Z,-5.70
2022-12-14T00:11:22.604Z,-5.70
2022-12-14T00:13:56.921Z,-5.80
2022-12-14T00:16:23.682Z,-5.80
2022-12-14T00:18:51.042Z,-5.80
2022-12-14T00:21:17.674Z,-5.80
2022-12-14T00:23:44.765Z,-5.90
2022-12-14T00:26:13.079Z,-5.90
2022-12-14T00:28:39.698Z,-5.80
2022-12-14T00:31:06.328Z,-5.90
2022-12-14T00:33:33.208Z,-5.90
2022-12-14T00:35:59.979Z,-5.90
2022-12-14T00:38:26.927Z,-5.90
2022-12-14T00:40:54.594Z,-5.80
2022-12-14T00:43:21.794Z,-5.80
2022-12-14T00:45:48.351Z,-5.90
2022-12-14T00:48:14.907Z,-5.90
2022-12-14T00:50:41.458Z,-5.90
2022-12-14T00:53:15.377Z,-5.90
2022-12-14T00:55:42.344Z,-5.90
2022-12-14T00:58:09.909Z,-5.90
2022-12-14T01:00:36.494Z,-5.80
2022-12-14T01:03:03.120Z,-5.80
2022-12-14T01:05:29.659Z,-5.80
2022-12-14T01:07:56.438Z,-5.80
2022-12-14T01:10:23.196Z,-5.70
2022-12-14T01:12:49.750Z,-5.70
2022-12-14T01:15:16.510Z,-5.70
2022-12-14T01:17:43.056Z,-5.60
2022-12-14T01:20:10.509Z,-5.60
2022-12-14T01:22:37.363Z,-5.60
2022-12-14T01:25:04.391Z,-5.60
2022-12-14T01:27:30.944Z,-5.60
2022-12-14T01:29:57.544Z,-5.60
2022-12-14T01:32:24.083Z,-5.60
2022-12-14T01:34:51.215Z,-5.60
2022-12-14T01:37:17.755Z,-5.70
2022-12-14T01:39:44.321Z,-5.70
2022-12-14T01:42:11.283Z,-5.70
2022-12-14T01:44:44.111Z,-5.70
2022-12-14T01:47:12.800Z,-5.70
2022-12-14T01:49:40.205Z,-5.80
2022-12-14T01:52:11.609Z,-5.70
2022-12-14T01:54:39.952Z,-5.80
2022-12-14T01:57:06.628Z,-5.80
2022-12-14T01:59:34.184Z,-5.80
2022-12-14T02:02:01.323Z,-5.80
2022-12-14T02:04:27.964Z,-5.90
2022-12-14T02:07:00.795Z,-5.80
2022-12-14T02:09:28.439Z,-5.80
2022-12-14T02:11:56.120Z,-5.90
2022-12-14T02:14:22.876Z,-5.90
2022-12-14T02:16:50.243Z,-5.90
2022-12-14T02:19:16.817Z,-5.80
2022-12-14T02:22:02.270Z,-5.80
2022-12-14T02:24:37.957Z,-5.80
2022-12-14T02:27:06.704Z,-5.80
2022-12-14T02:29:33.233Z,-5.80
2022-12-14T02:32:21.600Z,-5.80
2022-12-14T02:34:57.166Z,-5.90
2022-12-14T02:37:23.682Z,-5.90
2022-12-14T02:40:10.689Z,-5.90
2022-12-14T02:42:46.218Z,-5.90
2022-12-14T02:45:19.428Z,-5.90
2022-12-14T02:47:57.333Z,-6.00
2022-12-14T02:50:33.355Z,-6.00
2022-12-14T02:53:18.809Z,-6.00
2022-12-14T02:55:46.209Z,-6.00
2022-12-14T02:58:27.120Z,-6.10
2022-12-14T03:00:54.591Z,-6.10
2022-12-14T03:03:21.252Z,-6.20
2022-12-14T03:05:57.916Z,-6.10
2022-12-14T03:08:24.920Z,-6.20
2022-12-14T03:10:58.556Z,-6.20
2022-12-14T03:13:27.139Z,-6.30
2022-12-14T03:15:58.484Z,-6.30
2022-12-14T03:18:25.063Z,-6.40
2022-12-14T03:20:51.766Z,-6.40
2022-12-14T03:23:19.236Z,-6.40
2022-12-14T03:25:48.689Z,-6.30
2022-12-14T03:28:20.620Z,-6.30
2022-12-14T03:31:04.869Z,-6.30
2022-12-14T03:33:31.860Z,-6.30
2022-12-14T03:36:00.923Z,-6.40
2022-12-14T03:38:30.909Z,-6.40
2022-12-14T03:41:04.136Z,-6.40
2022-12-14T03:43:33.052Z,-6.40
2022-12-14T03:46:03.029Z,-6.40
2022-12-14T03:48:32.716Z,-6.40
2022-12-14T03:51:13.721Z,-6.40
2022-12-14T03:53:42.392Z,-6.50
2022-12-14T03:56:14.873Z,-6.60
2022-12-14T03:59:00.043Z,-6.60
2022-12-14T04:01:32.749Z,-6.60
2022-12-14T04:04:03.936Z,-6.60
2022-12-14T04:06:30.697Z,-6.70
2022-12-14T04:09:03.128Z,-6.70
2022-12-14T04:11:49.410Z,-6.70
2022-12-14T04:14:45.869Z,-6.70
2022-12-14T04:17:32.215Z,-6.60
2022-12-14T04:20:05.148Z,-6.60
2022-12-14T04:22:33.106Z,-6.80
2022-12-14T04:25:18.932Z,-6.70
2022-12-14T04:27:57.914Z,-6.70
2022-12-14T04:30:24.705Z,-6.70
2022-12-14T04:32:59.451Z,-6.70
2022-12-14T04:35:25.995Z,-6.60
2022-12-14T04:37:53.931Z,-6.60
2022-12-14T04:40:24.259Z,-6.50
2022-12-14T04:42:52.520Z,-6.50
2022-12-14T04:45:23.701Z,-6.40
2022-12-14T04:48:09.090Z,-6.30
2022-12-14T04:50:37.379Z,-6.30
2022-12-14T04:53:06.473Z,-6.20
2022-12-14T04:55:34.897Z,-6.20
2022-12-14T04:58:07.944Z,-6.20
2022-12-14T05:00:35.067Z,-6.20
2022-12-14T05:03:22.008Z,-6.10
2022-12-14T05:06:15.042Z,-6.10
2022-12-14T05:08:47.818Z,-6.10
2022-12-14T05:11:52.131Z,-6.10
2022-12-14T05:14:14.984Z,-6.10
2022-12-14T05:16:41.607Z,-6.20
2022-12-14T05:19:08.700Z,-6.10
2022-12-14T05:21:47.623Z,-6.20
2022-12-14T05:24:14.522Z,-6.10
2022-12-14T05:26:41.304Z,-6.10
2022-12-14T05:29:08.170Z,-6.00
2022-12-14T05:31:35.096Z,-6.00
2022-12-14T05:34:01.707Z,-6.00
2022-12-14T05:36:28.276Z,-6.00
2022-12-14T05:38:54.807Z,-6.00
2022-12-14T05:41:21.372Z,-6.00
2022-12-14T05:43:48.948Z,-5.90
2022-12-14T05:46:15.793Z,-5.90
2022-12-14T05:48:47.475Z,-5.90
2022-12-14T05:51:15.709Z,-5.90
2022-12-14T05:53:42.504Z,-6.00
2022-12-14T05:56:09.858Z,-5.90
2022-12-14T05:58:36.544Z,-5.90
2022-12-14T06:01:03.920Z,-5.90
2022-12-14T06:03:30.668Z,-5.90
2022-12-14T06:06:01.926Z,-5.90
2022-12-14T06:08:31.008Z,-5.80
2022-12-14T06:11:09.616Z,-5.90
2022-12-14T06:13:36.433Z,-5.90
2022-12-14T06:16:22.588Z,-5.90
2022-12-14T06:18:49.991Z,-5.90
2022-12-14T06:21:17.121Z,-5.90
2022-12-14T06:23:43.686Z,-5.90
2022-12-14T06:26:10.567Z,-5.90
2022-12-14T06:28:37.247Z,-5.90
2022-12-14T06:31:04.185Z,-5.90
2022-12-14T06:33:31.688Z,-5.80
2022-12-14T06:35:58.469Z,-5.90
2022-12-14T06:38:25.018Z,-5.90
2022-12-14T06:40:51.610Z,-5.80
2022-12-14T06:43:18.183Z,-5.90
2022-12-14T06:45:44.806Z,-5.80
2022-12-14T06:48:11.359Z,-5.80
2022-12-14T06:50:37.963Z,-5.80
2022-12-14T06:53:04.517Z,-5.80
2022-12-14T06:55:31.338Z,-5.80
2022-12-14T06:57:57.987Z,-5.80
2022-12-14T07:00:24.559Z,-5.80
2022-12-14T07:02:51.518Z,-5.80
2022-12-14T07:05:19.571Z,-5.80
2022-12-14T07:07:46.343Z,-5.80
2022-12-14T07:10:12.988Z,-5.80
2022-12-14T07:12:39.533Z,-5.70
2022-12-14T07:15:06.483Z,-5.80
2022-12-14T07:17:34.609Z,-5.70
2022-12-14T07:20:01.191Z,-5.60
2022-12-14T07:22:27.753Z,-5.60
2022-12-14T07:24:54.421Z,-5.60
2022-12-14T07:27:21.479Z,-5.60
2022-12-14T07:29:48.107Z,-5.60
2022-12-14T07:32:14.723Z,-5.60
2022-12-14T07:34:41.315Z,-5.60
2022-12-14T07:37:07.917Z,-5.50
2022-12-14T07:39:34.497Z,-5.50
2022-12-14T07:42:01.120Z,-5.50
2022-12-14T07:44:27.665Z,-5.50
2022-12-14T07:46:54.387Z,-5.40
2022-12-14T07:49:21.632Z,-5.40
2022-12-14T07:51:48.261Z,-5.30
2022-12-14T07:54:14.895Z,-5.30
2022-12-14T07:56:42.781Z,-5.30
2022-12-14T07:59:11.270Z,-5.30
2022-12-14T08:01:37.985Z,-5.20
2022-12-14T08:04:07.950Z,-5.20
2022-12-14T08:06:34.700Z,-5.10
2022-12-14T08:09:01.424Z,-5.10
2022-12-14T08:11:28.052Z,-5.00
2022-12-14T08:13:58.627Z,-5.00
2022-12-14T08:16:25.675Z,-4.90
2022-12-14T08:18:52.671Z,-4.80
2022-12-14T08:21:21.556Z,-4.80
2022-12-14T08:23:48.718Z,-4.10
2022-12-14T08:26:15.361Z,-4.10
2022-12-14T08:28:41.931Z,-4.20
2022-12-14T08:31:09.538Z,-4.10
2022-12-14T08:33:36.709Z,-4.10
2022-12-14T08:36:06.630Z,-4.10
2022-12-14T08:38:33.168Z,-4.10
2022-12-14T08:41:06.413Z,-4.10
2022-12-14T08:43:33.158Z,-4.00
2022-12-14T08:46:00.294Z,-4.00
2022-12-14T08:48:26.951Z,-4.00
2022-12-14T08:50:53.503Z,-4.00
2022-12-14T08:53:20.108Z,-4.00
2022-12-14T08:55:46.737Z,-4.00
2022-12-14T08:58:13.890Z,-4.00
2022-12-14T09:00:40.529Z,-3.90
2022-12-14T09:03:07.327Z,-3.80
2022-12-14T09:05:34.556Z,-3.80
2022-12-14T09:08:01.104Z,-3.70
2022-12-14T09:10:27.863Z,-3.70
2022-12-14T09:12:54.605Z,-3.70
2022-12-14T09:15:21.244Z,-3.60
2022-12-14T09:17:49.245Z,-3.50
2022-12-14T09:20:15.878Z,-3.40
2022-12-14T09:22:42.404Z,-3.30
2022-12-14T09:25:09.432Z,-3.20
2022-12-14T09:27:36.265Z,-3.10
2022-12-14T09:30:03.235Z,-3.10
2022-12-14T09:32:29.820Z,-3.10
2022-12-14T09:34:56.371Z,-3.00
2022-12-14T09:37:23.140Z,-3.00
2022-12-14T09:39:49.678Z,-2.90
2022-12-14T09:42:24.107Z,-2.80
2022-12-14T09:44:50.854Z,-2.70
2022-12-14T09:47:20.555Z,-2.60
2022-12-14T09:49:48.485Z,-2.60
2022-12-14T09:52:19.965Z,-2.40
2022-12-14T09:54:50.015Z,-2.30
2022-12-14T09:57:33.301Z,-2.20
2022-12-14T09:59:59.855Z,-2.20
2022-12-14T10:02:33.415Z,-2.20
2022-12-14T10:05:14.873Z,-2.20
2022-12-14T10:07:42.949Z,-2.20
2022-12-14T10:10:42.269Z,-2.10
2022-12-14T10:13:16.595Z,-2.10
2022-12-14T10:15:50.871Z,-2.10
2022-12-14T10:18:49.403Z,-2.20
2022-12-14T10:21:13.901Z,-2.10
2022-12-14T10:23:49.793Z,-2.10
2022-12-14T10:26:16.934Z,-1.90
2022-12-14T10:28:48.322Z,-1.80
2022-12-14T10:31:16.931Z,-1.80
2022-12-14T10:33:44.330Z,-1.80
2022-12-14T10:36:17.060Z,-1.70
2022-12-14T10:38:49.422Z,-1.70
2022-12-14T10:41:18.363Z,-1.70
2022-12-14T10:43:50.774Z,-1.50
2022-12-14T10:46:20.563Z,-1.50
2022-12-14T10:48:55.412Z,-1.40
2022-12-14T10:51:24.936Z,-1.40
2022-12-14T10:54:03.582Z,-1.50
2022-12-14T10:56:31.524Z,-1.50
2022-12-14T10:59:16.900Z,-1.60
2022-12-14T11:01:44.172Z,-1.60
2022-12-14T11:04:14.884Z,-1.50
2022-12-14T11:06:41.439Z,-1.50
2022-12-14T11:09:19.432Z,-1.60
2022-12-14T11:11:46.718Z,-1.60
2022-12-14T11:14:14.903Z,-1.60
2022-12-14T11:16:41.860Z,-1.70
2022-12-14T11:19:18.684Z,-1.70
2022-12-14T11:21:45.649Z,-1.70
2022-12-14T11:24:23.677Z,-1.70
2022-12-14T11:26:50.854Z,-1.70
2022-12-14T11:29:18.716Z,-1.60
2022-12-14T11:31:46.163Z,-1.60
2022-12-14T11:37:19.615Z,-1.60
2022-12-14T11:39:48.716Z,-1.60
2022-12-14T11:42:17.330Z,-1.60
2022-12-14T11:44:43.985Z,-1.50
2022-12-14T11:47:15.722Z,-1.50
2022-12-14T11:49:42.256Z,-1.40
2022-12-14T11:52:13.245Z,-1.40
2022-12-14T11:54:40.823Z,-1.30
2022-12-14T11:57:18.154Z,-1.30
2022-12-14T11:59:53.283Z,-1.20
2022-12-14T12:02:22.049Z,-1.20
2022-12-14T12:04:52.211Z,-1.30
2022-12-14T12:07:29.856Z,-1.30
2022-12-14T12:10:00.082Z,-1.30
2022-12-14T12:12:26.720Z,-1.20
2022-12-14T12:14:55.462Z,-1.20
2022-12-14T12:17:41.674Z,-1.20
2022-12-14T12:20:35.148Z,-1.20
2022-12-14T12:23:10.261Z,-1.10
2022-12-14T12:25:37.599Z,-1.10
2022-12-14T12:28:06.209Z,-1.10
2022-12-14T12:30:33.611Z,-1.10
2022-12-14T12:33:03.265Z,-1.10
2022-12-14T12:35:29.811Z,-1.00
2022-12-14T12:37:57.366Z,-0.90
2022-12-14T12:40:27.968Z,-0.90
2022-12-14T12:43:24.096Z,-0.80
2022-12-14T12:45:51.940Z,-0.80
2022-12-14T12:48:19.671Z,-0.80
2022-12-14T12:50:49.612Z,-0.90
2022-12-14T12:53:44.002Z,-1.00
2022-12-14T12:56:11.801Z,-1.10
2022-12-14T12:58:38.536Z,-1.10
2022-12-14T13:01:10.038Z,-1.10
2022-12-14T13:03:41.759Z,-1.20
2022-12-14T13:06:11.585Z,-1.20
2022-12-14T13:08:39.223Z,-1.20
2022-12-14T13:11:25.534Z,-1.20
2022-12-14T13:13:54.112Z,-1.20
2022-12-14T13:16:27.405Z,-1.30
2022-12-14T13:19:04.818Z,-1.30
2022-12-14T13:21:49.975Z,-1.50
2022-12-14T13:24:17.774Z,-1.60
2022-12-14T13:27:04.539Z,-1.60
2022-12-14T13:29:31.081Z,-1.70
2022-12-14T13:31:57.608Z,-1.60
2022-12-14T13:34:37.125Z,-1.70
2022-12-14T13:37:12.313Z,-1.70
2022-12-14T13:39:39.296Z,-1.80
2022-12-14T13:42:14.968Z,-1.90
2022-12-14T13:45:11.605Z,-1.90
2022-12-14T13:47:39.428Z,-2.00
2022-12-14T13:52:54.465Z,-2.20
2022-12-14T13:55:30.394Z,-2.30
2022-12-14T13:58:06.220Z,-2.30
2022-12-14T14:00:45.189Z,-2.30
2022-12-14T14:03:30.612Z,-2.30
2022-12-14T14:06:00.121Z,-2.30
2022-12-14T14:08:33.270Z,-2.30
2022-12-14T14:11:37.786Z,-2.30
2022-12-14T14:14:18.766Z,-2.40
2022-12-14T14:16:47.064Z,-2.40
2022-12-14T14:19:33.978Z,-2.40
2022-12-14T14:22:22.177Z,-2.40
2022-12-14T14:24:59.478Z,-2.40
2022-12-14T14:27:36.378Z,-2.40
2022-12-14T14:30:03.790Z,-2.40
2022-12-14T14:32:38.147Z,-2.40
2022-12-14T14:35:28.139Z,-2.40
2022-12-14T14:37:59.182Z,-2.50
2022-12-14T14:40:44.155Z,-2.50
2022-12-14T14:43:25.135Z,-2.60
2022-12-14T14:45:52.646Z,-2.70
2022-12-14T14:48:38.357Z,-2.80
2022-12-14T14:51:07.904Z,-2.80
2022-12-14T14:53:35.752Z,-2.90
2022-12-14T14:56:03.893Z,-2.90
2022-12-14T14:58:30.771Z,-3.00
2022-12-14T15:01:08.101Z,-3.00
2022-12-14T15:03:37.781Z,-3.10
2022-12-14T15:06:04.507Z,-3.10
2022-12-14T15:08:34.693Z,-3.30
2022-12-14T15:11:05.262Z,-3.10
2022-12-14T15:13:49.017Z,-2.90
2022-12-14T15:16:20.809Z,-2.70
2022-12-14T15:18:47.640Z,-2.70
2022-12-14T15:21:14.216Z,-2.60
2022-12-14T15:23:49.514Z,-2.60
2022-12-14T15:26:18.973Z,-2.60
2022-12-14T15:28:49.349Z,-2.90
2022-12-14T15:31:16.131Z,-3.00
2022-12-14T15:33:42.783Z,-3.10
2022-12-14T15:36:16.157Z,-3.20
2022-12-14T15:38:50.710Z,-3.30
2022-12-14T15:41:17.346Z,-3.40
2022-12-14T15:43:44.824Z,-3.50
2022-12-14T15:46:14.776Z,-3.50
2022-12-14T15:48:41.392Z,-3.60
2022-12-14T15:51:11.061Z,-3.70
2022-12-14T15:53:38.224Z,-3.60
2022-12-14T15:56:28.669Z,-3.70
2022-12-14T15:58:58.937Z,-3.60
2022-12-14T16:01:26.893Z,-3.70
2022-12-14T16:03:54.616Z,-3.70
2022-12-14T16:06:22.121Z,-3.60
2022-12-14T16:08:53.865Z,-3.40
2022-12-14T16:11:25.385Z,-3.10
2022-12-14T16:13:52.080Z,-3.00
2022-12-14T16:16:18.715Z,-3.20
2022-12-14T16:18:50.675Z,-3.50
2022-12-14T16:21:30.916Z,-3.70
2022-12-14T16:23:57.897Z,-3.80
2022-12-14T16:26:36.286Z,-3.90
2022-12-14T16:29:22.839Z,-4.00
2022-12-14T16:31:49.454Z,-4.10
2022-12-14T16:34:19.974Z,-4.10
2022-12-14T16:37:08.159Z,-4.20
2022-12-14T16:39:41.161Z,-4.20
2022-12-14T16:42:15.982Z,-4.30
2022-12-14T16:44:42.821Z,-4.30
2022-12-14T16:47:12.413Z,-4.30
2022-12-14T16:49:41.978Z,-4.40
2022-12-14T16:52:27.245Z,-4.30
2022-12-14T16:55:07.269Z,-4.40
2022-12-14T16:57:33.911Z,-4.60
2022-12-14T17:00:00.877Z,-4.80
2022-12-14T17:02:30.864Z,-4.80
2022-12-14T17:04:58.343Z,-4.90
2022-12-14T17:07:25.891Z,-4.80
2022-12-14T17:09:54.533Z,-4.90
2022-12-14T17:12:21.333Z,-4.90
2022-12-14T17:14:50.276Z,-4.90
2022-12-14T17:17:22.315Z,-4.90
2022-12-14T17:19:49.022Z,-4.90
2022-12-14T17:22:20.634Z,-4.90
2022-12-14T17:24:47.820Z,-5.00
2022-12-14T17:27:15.554Z,-5.00
2022-12-14T17:29:42.213Z,-5.10
2022-12-14T17:32:10.209Z,-5.00
2022-12-14T17:34:36.885Z,-5.10
2022-12-14T17:37:05.386Z,-5.10
2022-12-14T17:39:35.621Z,-5.10
2022-12-14T17:42:02.181Z,-5.00
2022-12-14T17:44:28.795Z,-5.10
2022-12-14T17:46:55.356Z,-5.20
2022-12-14T17:49:34.035Z,-5.40
2022-12-14T17:52:04.576Z,-5.40
2022-12-14T17:54:31.478Z,-5.40
2022-12-14T17:56:58.099Z,-5.50
2022-12-14T17:59:24.748Z,-5.60
2022-12-14T18:01:51.486Z,-5.70
2022-12-14T18:04:18.294Z,-5.70
2022-12-14T18:06:44.858Z,-5.70
2022-12-14T18:09:12.721Z,-5.70
2022-12-14T18:11:54.453Z,-5.70
2022-12-14T18:14:26.283Z,-5.70
2022-12-14T18:16:53.698Z,-5.60
2022-12-14T18:19:20.772Z,-5.70
2022-12-14T18:21:47.533Z,-5.70
2022-12-14T18:24:18.185Z,-5.70
2022-12-14T18:26:51.078Z,-5.70
2022-12-14T18:29:18.070Z,-5.70
2022-12-14T18:31:44.686Z,-5.70
2022-12-14T18:34:16.439Z,-5.70
2022-12-14T18:36:43.086Z,-5.80
2022-12-14T18:39:09.707Z,-5.90
2022-12-14T18:41:36.282Z,-6.00
2022-12-14T18:44:02.849Z,-6.10
2022-12-14T18:46:29.617Z,-6.20
2022-12-14T18:48:56.506Z,-6.20
2022-12-14T18:51:23.648Z,-6.20
2022-12-14T18:53:50.926Z,-6.20
2022-12-14T18:56:17.665Z,-6.20
2022-12-14T18:58:45.336Z,-6.20
2022-12-14T19:01:16.501Z,-6.20
2022-12-14T19:03:43.635Z,-6.20
2022-12-14T19:09:03.824Z,-6.30
2022-12-14T19:11:34.304Z,-6.30
2022-12-14T19:14:01.160Z,-6.30
2022-12-14T19:16:28.268Z,-6.40
2022-12-14T19:18:54.961Z,-6.40
2022-12-14T19:21:21.596Z,-6.40
2022-12-14T19:23:48.193Z,-6.40
2022-12-14T19:26:14.763Z,-6.40
2022-12-14T19:28:41.346Z,-6.40
2022-12-14T19:31:09.265Z,-6.40
2022-12-14T19:33:35.894Z,-6.40
2022-12-14T19:36:06.153Z,-6.50
2022-12-14T19:38:34.076Z,-6.40
2022-12-14T19:41:04.353Z,-6.40
2022-12-14T19:43:31.429Z,-6.40
2022-12-14T19:45:58.456Z,-6.40
2022-12-14T19:48:25.316Z,-6.40
2022-12-14T19:50:51.958Z,-6.40
2022-12-14T19:53:23.911Z,-6.40
2022-12-14T19:55:54.231Z,-6.40
2022-12-14T19:58:21.976Z,-6.50
2022-12-14T20:00:49.696Z,-6.40
2022-12-14T20:03:18.803Z,-6.50
2022-12-14T20:05:49.493Z,-6.50
2022-12-14T20:08:16.229Z,-6.50
2022-12-14T20:10:42.847Z,-6.40
2022-12-14T20:13:09.596Z,-6.40
2022-12-14T20:15:37.817Z,-6.40
2022-12-14T20:18:04.803Z,-6.40
2022-12-14T20:20:31.993Z,-6.40
2022-12-14T20:22:58.533Z,-6.40
2022-12-14T20:25:25.315Z,-6.40
2022-12-14T20:27:52.481Z,-6.40
2022-12-14T20:30:19.424Z,-6.50
2022-12-14T20:32:49.290Z,-6.50
2022-12-14T20:35:18.672Z,-6.50
2022-12-14T20:37:45.677Z,-6.60
2022-12-14T20:40:12.430Z,-6.60
2022-12-14T20:42:39.047Z,-6.60
2022-12-14T20:45:07.384Z,-6.60
2022-12-14T20:47:34.367Z,-6.60
2022-12-14T20:50:01.015Z,-6.70
2022-12-14T20:52:27.815Z,-6.80
2022-12-14T20:54:54.571Z,-6.90
2022-12-14T20:57:21.708Z,-6.90
2022-12-14T20:59:48.374Z,-6.90
2022-12-14T21:02:18.515Z,-6.90
2022-12-14T21:04:45.176Z,-6.90
2022-12-14T21:07:11.909Z,-6.90
2022-12-14T21:09:42.536Z,-6.90
2022-12-14T21:12:31.942Z,-6.90
2022-12-14T21:20:11.406Z,-6.90
2022-12-14T21:22:38.062Z,-6.90
2022-12-14T21:25:06.456Z,-6.90
2022-12-14T21:27:33.970Z,-6.90
2022-12-14T21:30:00.941Z,-6.90
2022-12-14T21:32:27.722Z,-6.90
2022-12-14T21:34:54.515Z,-7.00
2022-12-14T21:37:21.126Z,-7.00
2022-12-14T21:39:54.535Z,-7.00
2022-12-14T21:42:25.843Z,-7.00
2022-12-14T21:44:53.114Z,-7.00
2022-12-14T21:47:20.435Z,-7.00
2022-12-14T21:49:47.097Z,-7.00
2022-12-14T21:52:14.620Z,-7.00
2022-12-14T21:54:41.298Z,-7.00
2022-12-14T21:57:29.524Z,-7.00
2022-12-14T21:59:56.114Z,-7.00
2022-12-14T22:02:23.791Z,-7.10
2022-12-14T22:04:50.549Z,-7.10
2022-12-14T22:07:17.802Z,-7.10
2022-12-14T22:09:44.590Z,-7.10
2022-12-14T22:12:16.465Z,-7.10
2022-12-14T22:14:43.029Z,-7.30
2022-12-14T22:17:10.577Z,-7.40
2022-12-14T22:19:37.316Z,-7.40
2022-12-14T22:22:05.107Z,-7.40
2022-12-14T22:24:31.837Z,-7.40
2022-12-14T22:26:59.302Z,-7.40
2022-12-14T22:29:25.881Z,-7.20
2022-12-14T22:31:52.677Z,-7.30
2022-12-14T22:34:20.973Z,-7.30
2022-12-14T22:39:22.235Z,-7.40
2022-12-14T22:41:49.096Z,-7.40
2022-12-14T22:44:18.083Z,-7.40
2022-12-14T22:46:44.839Z,-7.40
2022-12-14T22:49:14.869Z,-7.40
2022-12-14T22:51:41.439Z,-7.40
2022-12-14T22:54:08.042Z,-7.40
2022-12-14T22:56:42.136Z,-7.40
2022-12-14T22:59:13.476Z,-7.50
2022-12-14T23:01:40.162Z,-7.50
2022-12-14T23:04:07.223Z,-7.50
2022-12-14T23:06:34.073Z,-7.50
2022-12-14T23:09:19.474Z,-7.60
2022-12-14T23:12:11.464Z,-7.60
2022-12-14T23:14:57.306Z,-7.60
2022-12-14T23:17:42.880Z,-7.60
2022-12-14T23:20:28.262Z,-7.50
2022-12-14T23:23:13.802Z,-7.60
2022-12-14T23:26:00.148Z,-7.70
2022-12-14T23:28:49.698Z,-7.70
2022-12-14T23:31:39.873Z,-7.70
2022-12-14T23:34:25.287Z,-7.70
2022-12-14T23:37:13.839Z,-7.60
2022-12-14T23:40:03.637Z,-7.70
2022-12-14T23:42:49.141Z,-7.60
2022-12-14T23:45:34.597Z,-7.60
2022-12-14T23:48:20.293Z,-7.70
2022-12-14T23:51:06.153Z,-7.70
2022-12-14T23:53:51.502Z,-7.70
2022-12-14T23:56:37.035Z,-7.70
2022-12-14T23:59:26.361Z,-7.70
